Time;durP1;ratioP1;P1;durP2;ratioP2;P2;SDS_P1;SDS_P2;PMS_P1;PMS_P2;Temp;Humidity;BMP_temperature;BMP_pressure;BME280_temperature;BME280_humidity;BME280_pressure;Samples;Min_cycle;Max_cycle;Signal;HPM_P1;HPM_P2
2022/09/26 00:01:06;;;;;;;6.47;5.07;;;;;;;12.90;68.09;96824.56;4877525;28;20031;-79
2022/09/26 00:03:32;;;;;;;8.80;6.05;;;;;;;12.92;67.69;96814.63;4864368;28;20982;-79
2022/09/26 00:06:06;;;;;;;11.73;5.60;;;;;;;12.72;67.97;96812.88;4878944;28;20055;-79
2022/09/26 00:08:32;;;;;;;7.50;5.38;;;;;;;12.80;68.01;96814.16;4862282;28;20832;-79
2022/09/26 00:11:00;;;;;;;6.70;4.97;;;;;;;12.77;67.43;96814.69;4871283;28;20175;-78
2022/09/26 00:13:26;;;;;;;7.00;5.32;;;;;;;12.75;67.45;96811.56;4862912;28;20666;-80
2022/09/26 00:15:53;;;;;;;8.20;5.63;;;;;;;12.70;67.42;96809.75;4876335;28;20065;-78
2022/09/26 00:18:18;;;;;;;5.97;4.75;;;;;;;12.71;67.68;96820.97;4890687;28;20739;-78
2022/09/26 00:20:44;;;;;;;6.75;4.93;;;;;;;12.62;68.04;96806.91;4862209;28;20121;-79
2022/09/26 00:23:09;;;;;;;6.93;5.07;;;;;;;12.57;67.95;96799.06;4875567;28;20070;-79
2022/09/26 00:25:34;;;;;;;8.38;5.53;;;;;;;12.55;67.99;96805.34;4890476;28;20228;-79
2022/09/26 00:28:00;;;;;;;9.48;5.35;;;;;;;12.56;68.04;96803.53;4878137;28;20035;-79
2022/09/26 00:30:25;;;;;;;7.35;5.70;;;;;;;12.52;67.55;96802.47;4877213;28;20687;-79
2022/09/26 00:32:51;;;;;;;7.15;5.10;;;;;;;12.49;67.11;96798.59;4894213;28;20026;-79
2022/09/26 00:35:16;;;;;;;8.82;6.30;;;;;;;12.49;67.78;96801.19;4861134;28;20038;-78
2022/09/26 00:37:42;;;;;;;8.95;5.90;;;;;;;12.49;67.67;96797.78;4888683;28;20031;-79
2022/09/26 00:40:08;;;;;;;8.50;5.70;;;;;;;12.48;67.85;96793.63;4890998;28;20030;-79
2022/09/26 00:42:33;;;;;;;6.78;5.20;;;;;;;12.50;67.98;96794.13;4864833;28;20062;-79
2022/09/26 00:44:58;;;;;;;7.85;5.90;;;;;;;12.49;67.69;96788.13;4873864;28;20058;-79
2022/09/26 00:47:48;;;;;;;9.88;6.60;;;;;;;12.32;68.26;96790.25;4879983;28;20046;-79
2022/09/26 00:50:34;;;;;;;7.88;5.70;;;;;;;12.33;67.74;96786.59;4861541;28;20046;-79
2022/09/26 00:53:14;;;;;;;8.52;6.00;;;;;;;12.24;68.14;96782.97;4907420;28;20494;-79
2022/09/26 00:55:50;;;;;;;8.38;5.38;;;;;;;12.29;67.62;96772.53;4862738;28;20651;-79
2022/09/26 00:58:40;;;;;;;8.68;5.47;;;;;;;12.17;68.00;96770.97;4888341;28;20058;-78
2022/09/26 01:01:06;;;;;;;9.73;5.95;;;;;;;12.35;68.08;96756.59;4874487;28;20125;-79
2022/09/26 01:03:33;;;;;;;9.63;6.03;;;;;;;12.36;67.74;96765.19;4875350;28;20807;-79
2022/09/26 01:05:59;;;;;;;7.25;5.28;;;;;;;12.38;67.63;96767.53;4858194;28;20027;-79
2022/09/26 01:08:30;;;;;;;7.97;4.93;;;;;;;12.31;67.38;96763.38;4863825;28;20031;-79
2022/09/26 01:10:56;;;;;;;7.72;5.53;;;;;;;12.33;67.58;96757.88;4880552;28;20034;-79
2022/09/26 01:13:22;;;;;;;6.35;4.97;;;;;;;12.32;67.49;96761.53;4864572;28;20030;-79
2022/09/26 01:15:47;;;;;;;9.80;5.57;;;;;;;12.24;67.69;96755.03;4879472;28;20022;-79
2022/09/26 01:18:12;;;;;;;6.63;5.30;;;;;;;12.30;67.46;96753.19;4880827;28;20065;-79
2022/09/26 01:20:56;;;;;;;8.07;4.90;;;;;;;12.08;68.05;96751.69;4877909;28;20053;-79
2022/09/26 01:23:30;;;;;;;7.85;4.85;;;;;;;12.09;67.31;96753.22;4866415;28;20810;-79
2022/09/26 01:26:11;;;;;;;6.38;5.05;;;;;;;12.04;67.62;96750.63;4897426;28;20031;-78
2022/09/26 01:28:55;;;;;;;6.80;4.85;;;;;;;12.17;67.65;96739.66;4880375;28;20593;-79
2022/09/26 01:32:47;;;;;;;6.57;4.82;;;;;;;11.97;67.59;96737.09;4890147;28;20621;-79
2022/09/26 01:34:41;;;;;;;6.32;5.35;;;;;;;11.91;67.58;96735.50;4892248;28;20033;-79
2022/09/26 01:37:26;;;;;;;6.90;4.82;;;;;;;11.81;67.74;96742.28;4876269;28;20031;-79
2022/09/26 01:39:55;;;;;;;7.93;5.00;;;;;;;11.97;67.60;96734.47;4879630;28;20118;-78
2022/09/26 01:42:59;;;;;;;7.97;4.93;;;;;;;11.90;67.88;96736.56;4873408;28;20074;-78
2022/09/26 01:45:44;;;;;;;9.63;5.25;;;;;;;11.89;67.31;96742.81;4883188;28;20038;-78
2022/09/26 01:48:15;;;;;;;6.07;4.45;;;;;;;11.91;67.53;96740.75;4872500;28;20078;-79
2022/09/26 01:50:48;;;;;;;6.00;4.78;;;;;;;11.84;67.53;96735.78;4876815;28;20089;-78
2022/09/26 01:53:28;;;;;;;6.25;4.53;;;;;;;11.74;67.80;96728.75;4863123;28;20204;-78
2022/09/26 01:56:00;;;;;;;8.68;4.93;;;;;;;11.75;67.34;96726.91;4892197;28;20104;-78
2022/09/26 01:58:44;;;;;;;7.60;4.68;;;;;;;11.84;67.66;96729.75;4893369;28;20035;-79
2022/09/26 02:01:11;;;;;;;6.78;4.03;;;;;;;11.87;67.92;96730.00;4863843;28;20031;-79
2022/09/26 02:03:42;;;;;;;10.38;5.13;;;;;;;11.73;68.01;96721.19;4880187;28;20193;-78
2022/09/26 02:06:11;;;;;;;6.47;4.30;;;;;;;11.80;67.63;96719.06;4860831;28;20065;-79
2022/09/26 02:08:40;;;;;;;6.45;4.35;;;;;;;11.74;67.70;96713.09;4883058;28;20055;-79
2022/09/26 02:11:16;;;;;;;6.72;4.40;;;;;;;11.59;68.32;96707.88;4877146;28;20030;-79
2022/09/26 02:13:55;;;;;;;8.00;4.80;;;;;;;11.53;68.24;96695.88;4864232;28;20530;-78
2022/09/26 02:16:25;;;;;;;7.43;4.70;;;;;;;11.67;68.05;96696.13;4876504;28;20035;-79
2022/09/26 02:18:59;;;;;;;8.55;4.35;;;;;;;11.66;67.85;96691.97;4876264;28;20683;-78
2022/09/26 02:21:25;;;;;;;7.38;4.68;;;;;;;11.76;67.50;96690.13;4895687;28;20694;-79
2022/09/26 02:23:52;;;;;;;5.38;4.30;;;;;;;11.68;67.30;96687.28;4877032;28;20031;-79
2022/09/26 02:26:18;;;;;;;5.80;4.43;;;;;;;11.69;67.53;96681.03;4862382;28;20062;-79
2022/09/26 02:28:43;;;;;;;4.53;3.72;;;;;;;11.66;67.97;96679.72;4891969;28;20124;-78
2022/09/26 02:31:10;;;;;;;5.63;4.03;;;;;;;11.65;67.60;96678.13;4895343;28;20067;-78
2022/09/26 02:33:35;;;;;;;5.13;3.90;;;;;;;11.62;67.95;96673.47;4863636;28;20057;-78
2022/09/26 02:36:09;;;;;;;5.75;3.80;;;;;;;11.49;67.73;96674.00;4876483;28;20031;-78
2022/09/26 02:38:34;;;;;;;5.03;3.65;;;;;;;11.51;67.68;96669.31;4878517;28;20031;-79
2022/09/26 02:41:06;;;;;;;5.85;3.40;;;;;;;11.49;67.78;96671.41;4892949;28;20727;-79
2022/09/26 02:43:43;;;;;;;5.30;3.42;;;;;;;11.38;68.17;96665.41;4892947;28;20117;-78
2022/09/26 02:46:18;;;;;;;5.72;4.18;;;;;;;11.47;67.65;96668.28;4877125;28;20088;-79
2022/09/26 02:49:04;;;;;;;7.57;3.60;;;;;;;11.35;67.69;96660.72;4879024;28;20070;-79
2022/09/26 02:52:09;;;;;;;4.80;4.00;;;;;;;11.30;68.09;96661.50;4894643;28;20035;-79
2022/09/26 02:54:45;;;;;;;5.68;3.38;;;;;;;11.21;68.03;96642.22;4886076;28;20121;-78
2022/09/26 02:57:43;;;;;;;5.82;3.55;;;;;;;11.24;68.17;96647.69;4854971;28;20023;-78
2022/09/26 03:00:18;;;;;;;5.60;3.90;;;;;;;11.25;67.99;96643.25;4906640;28;20976;-78
2022/09/26 03:02:51;;;;;;;4.72;4.00;;;;;;;11.20;67.79;96632.84;4891566;28;20482;-78
2022/09/26 03:05:19;;;;;;;6.93;4.07;;;;;;;11.31;67.65;96633.59;4889243;28;20328;-78
2022/09/26 03:07:55;;;;;;;5.40;3.88;;;;;;;11.25;67.87;96630.22;4878237;28;20041;-78
2022/09/26 03:10:21;;;;;;;4.25;3.25;;;;;;;11.35;67.85;96627.59;4894911;28;20098;-79
2022/09/26 03:12:48;;;;;;;5.95;3.70;;;;;;;11.27;67.56;96625.53;4878719;28;20781;-79
2022/09/26 03:15:14;;;;;;;6.60;3.85;;;;;;;11.24;67.49;96626.03;4866918;28;20039;-80
2022/09/26 03:17:51;;;;;;;6.13;3.75;;;;;;;11.05;67.93;96625.78;4893629;28;20023;-78
2022/09/26 03:20:21;;;;;;;5.50;3.75;;;;;;;11.12;67.68;96625.53;4877986;28;20848;-78
2022/09/26 03:22:47;;;;;;;5.45;3.60;;;;;;;11.17;67.94;96621.13;4862797;28;20023;-79
2022/09/26 03:25:15;;;;;;;5.40;3.60;;;;;;;11.14;67.92;96608.63;4893404;28;20093;-78
2022/09/26 03:27:42;;;;;;;5.13;3.90;;;;;;;11.22;67.67;96615.91;4891070;28;20665;-78
2022/09/26 03:30:10;;;;;;;4.55;3.38;;;;;;;11.19;67.81;96610.41;4876148;28;20037;-78
2022/09/26 03:32:36;;;;;;;5.80;3.58;;;;;;;11.17;67.92;96602.88;4892123;28;20034;-78
2022/09/26 03:35:02;;;;;;;6.75;3.78;;;;;;;11.17;67.95;96607.28;4893697;28;20095;-78
2022/09/26 03:37:27;;;;;;;4.50;3.05;;;;;;;11.15;67.92;96604.16;4875458;28;20038;-78
2022/09/26 03:39:52;;;;;;;4.70;3.30;;;;;;;11.15;67.98;96601.56;4893951;28;20026;-78
2022/09/26 03:42:18;;;;;;;6.95;4.18;;;;;;;11.10;67.94;96593.75;4894767;28;20039;-78
2022/09/26 03:44:43;;;;;;;7.55;4.03;;;;;;;11.03;68.11;96586.19;4889650;28;20045;-79
2022/09/26 03:47:09;;;;;;;6.07;3.85;;;;;;;10.99;67.96;96591.16;4876710;28;20019;-79
2022/09/26 03:49:35;;;;;;;6.82;3.92;;;;;;;11.00;68.65;96579.69;4890832;28;20093;-78
2022/09/26 03:52:01;;;;;;;7.50;3.70;;;;;;;11.03;68.35;96581.75;4862576;28;20050;-79
2022/09/26 03:54:26;;;;;;;5.35;3.63;;;;;;;11.05;68.15;96577.09;4875358;28;20138;-79
2022/09/26 03:56:53;;;;;;;5.40;3.78;;;;;;;11.00;68.64;96582.31;4893592;28;20133;-78
2022/09/26 03:59:18;;;;;;;6.25;3.65;;;;;;;11.07;68.40;96579.44;4879067;28;20175;-78
2022/09/26 04:01:43;;;;;;;5.40;3.58;;;;;;;11.11;68.10;96575.25;4878155;28;20418;-78
2022/09/26 04:04:09;;;;;;;6.15;3.95;;;;;;;11.15;68.09;96565.09;4875769;28;20031;-79
2022/09/26 04:06:34;;;;;;;6.28;3.90;;;;;;;11.14;67.75;96566.13;4888721;28;20019;-78
2022/09/26 04:09:00;;;;;;;10.52;3.88;;;;;;;11.14;68.23;96563.50;4862632;28;20812;-78
2022/09/26 04:11:25;;;;;;;7.30;3.47;;;;;;;11.16;67.94;96561.44;4879279;28;20026;-78
2022/09/26 04:13:51;;;;;;;5.43;3.58;;;;;;;11.24;67.97;96556.47;4875229;28;20275;-79
2022/09/26 04:16:18;;;;;;;5.82;3.35;;;;;;;11.25;67.78;96559.88;4871376;28;20792;-79
2022/09/26 04:18:44;;;;;;;8.43;3.88;;;;;;;11.25;67.86;96559.88;4899845;28;20678;-78
2022/09/26 04:21:12;;;;;;;5.55;3.33;;;;;;;11.21;67.55;96551.03;4883041;28;20023;-79
2022/09/26 04:23:39;;;;;;;5.35;3.75;;;;;;;11.21;67.75;96545.81;4881880;28;20031;-78
2022/09/26 04:26:10;;;;;;;5.72;3.63;;;;;;;11.12;67.94;96544.75;4867335;28;20776;-79
2022/09/26 04:28:36;;;;;;;7.20;3.90;;;;;;;11.20;68.22;96533.81;4896545;28;20034;-78
2022/09/26 04:31:03;;;;;;;6.93;3.65;;;;;;;11.18;68.58;96525.50;4882472;28;20555;-78
2022/09/26 04:33:31;;;;;;;5.50;4.35;;;;;;;11.25;68.48;96526.00;4879704;28;20255;-78
2022/09/26 04:35:59;;;;;;;7.93;4.50;;;;;;;11.23;68.59;96526.25;4853782;28;20212;-78
2022/09/26 04:38:32;;;;;;;4.68;3.33;;;;;;;11.38;68.55;96519.47;4895941;28;20423;-78
2022/09/26 04:41:18;;;;;;;4.43;3.40;;;;;;;11.26;69.00;96519.75;4876008;28;20451;-78
2022/09/26 04:43:44;;;;;;;6.20;3.60;;;;;;;11.52;68.41;96511.84;4896644;28;20599;-78
2022/09/26 04:46:15;;;;;;;6.78;3.53;;;;;;;11.50;68.35;96514.72;4890312;28;20194;-78
2022/09/26 04:48:41;;;;;;;7.97;3.78;;;;;;;11.58;68.31;96508.16;4856831;28;20242;-79
2022/09/26 04:51:12;;;;;;;7.65;4.60;;;;;;;11.49;68.21;96504.56;4861066;28;20274;-78
2022/09/26 04:53:38;;;;;;;5.50;4.07;;;;;;;11.66;68.75;96504.22;4860874;28;20489;-79
2022/09/26 04:56:08;;;;;;;6.50;4.47;;;;;;;11.60;68.74;96496.44;4874943;28;20187;-78
2022/09/26 04:58:35;;;;;;;8.60;4.80;;;;;;;11.70;68.53;96494.81;4876909;28;20204;-78
2022/09/26 05:01:05;;;;;;;6.07;3.80;;;;;;;11.66;68.46;96493.81;4860266;28;20211;-78
2022/09/26 05:03:31;;;;;;;6.70;3.92;;;;;;;11.81;68.22;96494.50;4875638;28;20265;-78
2022/09/26 05:05:57;;;;;;;5.78;3.60;;;;;;;11.81;68.42;96497.13;4892460;28;20334;-78
2022/09/26 05:08:23;;;;;;;6.80;4.18;;;;;;;11.87;67.96;96494.47;4862490;28;20108;-78
2022/09/26 05:10:53;;;;;;;8.25;4.20;;;;;;;11.77;68.37;96490.88;4896364;28;20390;-78
2022/09/26 05:13:19;;;;;;;8.43;3.83;;;;;;;11.83;68.08;96489.03;4892206;28;20237;-78
2022/09/26 05:15:44;;;;;;;5.05;3.75;;;;;;;11.86;68.16;96478.06;4892189;28;20280;-79
2022/09/26 05:18:10;;;;;;;6.25;3.80;;;;;;;11.85;68.39;96480.94;4891334;28;20116;-78
2022/09/26 05:20:37;;;;;;;4.40;3.60;;;;;;;11.85;68.14;96481.69;4873895;28;20329;-78
2022/09/26 05:23:06;;;;;;;7.82;4.90;;;;;;;11.73;68.55;96489.06;4874680;28;20112;-78
2022/09/26 05:28:20;;;;;;;5.50;3.75;;;;;;;11.92;67.65;96481.44;4895292;28;20191;-78
2022/09/26 05:30:46;;;;;;;6.03;4.15;;;;;;;11.86;67.96;96487.69;4874040;28;20288;-78
2022/09/26 05:33:12;;;;;;;7.40;4.25;;;;;;;11.81;68.16;96484.06;4886857;28;20104;-78
2022/09/26 05:35:38;;;;;;;6.88;4.50;;;;;;;11.79;68.09;96493.22;4875994;29;20270;-79
2022/09/26 05:38:04;;;;;;;6.43;4.38;;;;;;;11.78;67.94;96487.22;4895359;28;20594;-78
2022/09/26 05:43:14;;;;;;;8.70;4.78;;;;;;;11.74;67.69;96475.75;4891993;28;20629;-78
2022/09/26 05:45:39;;;;;;;6.15;3.78;;;;;;;11.83;67.65;96475.22;4855261;28;20211;-78
2022/09/26 05:48:05;;;;;;;10.10;3.95;;;;;;;11.74;67.73;96478.38;4893094;28;20283;-78
2022/09/26 05:50:31;;;;;;;6.22;4.47;;;;;;;11.69;68.07;96473.19;4862690;28;20199;-78
2022/09/26 05:52:58;;;;;;;6.75;4.32;;;;;;;11.68;68.31;96476.81;4892723;28;20199;-77
2022/09/26 05:55:24;;;;;;;7.55;4.60;;;;;;;11.70;67.93;96473.94;4873942;28;20298;-78
2022/09/26 05:57:54;;;;;;;6.50;4.28;;;;;;;11.56;67.51;96463.31;4872334;28;20546;-79
2022/09/26 06:00:19;;;;;;;9.57;4.20;;;;;;;11.69;67.71;96473.19;4880548;28;20396;-78
2022/09/26 06:02:45;;;;;;;6.55;3.47;;;;;;;11.65;67.91;96474.75;4862201;28;20232;-78
2022/09/26 06:05:11;;;;;;;6.30;4.45;;;;;;;11.68;67.69;96479.44;4864896;28;20629;-78
2022/09/26 06:07:36;;;;;;;7.03;4.28;;;;;;;11.68;67.75;96478.66;4892871;28;20206;-78
2022/09/26 06:10:04;;;;;;;7.97;4.88;;;;;;;11.66;68.04;96467.72;4894722;28;20232;-78
2022/09/26 06:12:30;;;;;;;7.97;4.90;;;;;;;11.66;67.98;96473.72;4872013;29;20649;-78
2022/09/26 06:14:55;;;;;;;9.05;5.32;;;;;;;11.65;68.02;96468.75;4891440;28;20206;-78
2022/09/26 06:17:21;;;;;;;10.63;6.68;;;;;;;11.71;68.49;96465.09;4874513;28;20164;-78
2022/09/26 06:20:07;;;;;;;;;;;;;;;11.53;69.20;96469.06;4894935;28;20220;-78
2022/09/26 06:22:42;;;;;;;8.88;5.15;;;;;;;11.83;68.45;96467.38;4859570;28;20243;-79
2022/09/26 06:25:10;;;;;;;;;;;;;;;11.76;68.93;96454.63;4876614;28;20225;-78
2022/09/26 06:27:37;;;;;;;7.38;5.28;;;;;;;12.13;68.22;96454.19;4876585;28;20086;-79
2022/09/26 06:30:09;;;;;;;11.30;6.05;;;;;;;12.13;68.12;96454.19;4899026;28;20091;-79
2022/09/26 06:32:35;;;;;;;9.07;5.50;;;;;;;12.35;67.38;96453.75;4895603;28;20196;-79
2022/09/26 06:35:02;;;;;;;12.05;5.78;;;;;;;12.34;67.67;96451.41;4904745;28;20124;-78
2022/09/26 06:37:27;;;;;;;8.63;5.68;;;;;;;12.43;68.32;96451.63;4883569;28;20190;-78
2022/09/26 06:39:53;;;;;;;10.05;6.00;;;;;;;12.54;67.99;96446.03;4863643;28;20649;-78
2022/09/26 06:42:18;;;;;;;10.02;6.07;;;;;;;12.62;67.54;96442.03;4903804;28;20220;-80
2022/09/26 06:44:43;;;;;;;9.05;5.70;;;;;;;12.67;67.14;96436.00;4871123;28;20199;-78
2022/09/26 06:47:09;;;;;;;10.90;6.00;;;;;;;12.58;67.77;96440.25;4894592;28;20256;-78
2022/09/26 06:49:35;;;;;;;10.70;6.70;;;;;;;12.57;68.04;96425.63;4891511;28;20217;-78
2022/09/26 06:52:01;;;;;;;10.40;6.80;;;;;;;12.60;67.37;96419.88;4875084;28;20125;-79
2022/09/26 06:54:26;;;;;;;9.80;5.85;;;;;;;12.55;67.87;96423.31;4892918;28;20754;-78
2022/09/26 06:56:52;;;;;;;8.48;6.15;;;;;;;12.72;67.61;96417.66;4885623;28;20178;-79
2022/09/26 06:59:17;;;;;;;11.25;6.63;;;;;;;12.87;66.91;96422.72;4876715;28;20324;-79
2022/09/26 07:01:44;;;;;;;10.18;6.47;;;;;;;12.95;67.52;96412.72;4881629;28;20598;-78
2022/09/26 07:04:10;;;;;;;8.38;5.95;;;;;;;12.99;67.39;96413.72;4866049;28;20103;-79
2022/09/26 07:06:37;;;;;;;8.02;5.95;;;;;;;13.14;67.32;96410.16;4890904;28;20234;-78
2022/09/26 07:09:02;;;;;;;8.77;6.07;;;;;;;13.06;67.32;96409.72;4873716;28;20152;-79
2022/09/26 07:11:28;;;;;;;9.98;6.50;;;;;;;13.11;67.73;96403.69;4866968;28;20155;-79
2022/09/26 07:13:53;;;;;;;9.13;5.95;;;;;;;13.28;67.09;96403.19;4873969;28;20195;-78
2022/09/26 07:16:19;;;;;;;8.15;6.15;;;;;;;13.43;66.39;96410.09;4873125;28;20249;-78
2022/09/26 07:18:45;;;;;;;9.35;6.32;;;;;;;13.45;66.44;96407.97;4872765;28;20222;-78
2022/09/26 07:21:10;;;;;;;5.90;4.85;;;;;;;13.62;66.06;96404.88;4857786;28;20332;-80
2022/09/26 07:23:36;;;;;;;7.53;5.10;;;;;;;13.81;65.90;96397.81;4889327;28;20266;-79
2022/09/26 07:26:01;;;;;;;9.80;5.95;;;;;;;14.01;65.54;96407.19;4875182;28;20226;-78
2022/09/26 07:28:28;;;;;;;6.75;4.63;;;;;;;14.23;65.44;96406.59;4887471;28;20334;-79
2022/09/26 07:30:57;;;;;;;8.20;4.78;;;;;;;14.28;64.68;96404.97;4879000;28;20282;-79
2022/09/26 07:33:22;;;;;;;9.98;4.80;;;;;;;14.43;64.31;96410.75;4860204;28;20196;-79
2022/09/26 07:35:48;;;;;;;7.57;5.10;;;;;;;14.49;64.71;96400.94;4872191;28;20172;-79
2022/09/26 07:38:13;;;;;;;7.25;4.45;;;;;;;14.56;64.79;96403.97;4856883;28;20190;-79
2022/09/26 07:40:41;;;;;;;6.78;4.80;;;;;;;14.57;64.58;96407.38;4857561;28;20491;-78
2022/09/26 07:43:06;;;;;;;6.20;4.50;;;;;;;14.62;63.90;96409.94;4890929;28;20190;-80
2022/09/26 07:51:10;;;;;;;6.22;4.57;;;;;;;14.47;65.29;96399.69;4883509;28;20190;-78
2022/09/26 07:53:39;;;;;;;6.00;4.20;;;;;;;14.56;65.24;96401.34;4876262;28;20198;-79
2022/09/26 07:56:06;;;;;;;6.45;4.72;;;;;;;14.62;65.67;96402.06;4862290;28;20304;-79
2022/09/26 07:58:42;;;;;;;5.90;4.72;;;;;;;14.55;66.61;96396.41;4875601;28;20249;-80
2022/09/26 08:01:17;;;;;;;5.30;3.75;;;;;;;14.55;65.35;96391.19;4878803;28;20274;-79
2022/09/26 08:03:49;;;;;;;;;;;;;;;14.45;66.21;96399.22;4890777;28;21028;-80
2022/09/26 08:06:19;;;;;;;6.30;4.05;;;;;;;14.66;65.92;96383.94;4893550;28;20077;-79
2022/09/26 08:08:46;;;;;;;6.43;4.28;;;;;;;14.65;65.50;96385.78;4861536;28;20190;-79
2022/09/26 08:11:16;;;;;;;6.60;4.47;;;;;;;14.73;65.80;96379.09;4893465;28;20233;-79
2022/09/26 08:13:42;;;;;;;5.88;4.25;;;;;;;15.10;65.06;96383.34;4896330;28;20345;-80
2022/09/26 08:16:07;;;;;;;5.03;4.00;;;;;;;15.32;63.98;96384.50;4877758;28;20218;-79
2022/09/26 08:18:33;;;;;;;6.65;4.38;;;;;;;15.07;64.88;96383.94;4887589;28;20323;-79
2022/09/26 08:21:01;;;;;;;7.55;4.30;;;;;;;15.04;65.19;96374.03;4893522;28;20171;-81
2022/09/26 08:23:28;;;;;;;8.40;4.38;;;;;;;14.95;64.53;96376.56;4875284;28;20195;-80
2022/09/26 08:25:54;;;;;;;5.03;3.63;;;;;;;14.79;63.49;96378.69;4884777;28;20681;-80
2022/09/26 08:28:19;;;;;;;4.97;3.95;;;;;;;14.71;65.12;96382.00;4889915;28;20103;-80
2022/09/26 08:30:45;;;;;;;4.85;3.70;;;;;;;14.70;64.98;96372.59;4879076;28;20305;-80
2022/09/26 08:33:11;;;;;;;5.45;3.95;;;;;;;14.73;64.67;96379.09;4882263;28;20173;-80
2022/09/26 08:35:37;;;;;;;7.03;4.15;;;;;;;14.58;65.53;96372.22;4862364;28;20212;-81
2022/09/26 08:38:07;;;;;;;6.68;3.47;;;;;;;14.46;65.93;96370.09;4873433;28;20622;-81
2022/09/26 08:40:45;;;;;;;6.78;3.65;;;;;;;14.52;65.74;96368.94;4851789;29;20239;-81
2022/09/26 08:43:30;;;;;;;7.00;4.13;;;;;;;14.75;66.32;96361.22;4891866;28;20656;-80
2022/09/26 08:46:43;;;;;;;7.40;3.78;;;;;;;15.01;67.26;96377.25;4891110;28;20328;-80
2022/09/26 08:49:23;;;;;;;6.15;4.10;;;;;;;15.67;64.31;96374.31;4879762;28;20250;-80
2022/09/26 08:51:57;;;;;;;4.82;3.88;;;;;;;16.00;63.36;96374.13;4878315;28;20281;-80
2022/09/26 08:54:39;;;;;;;5.40;3.38;;;;;;;15.71;63.67;96370.81;4874554;28;20177;-79
2022/09/26 08:57:12;;;;;;;5.38;3.92;;;;;;;15.77;63.13;96379.38;4887336;28;20423;-80
2022/09/26 08:59:39;;;;;;;5.25;4.13;;;;;;;15.45;63.94;96373.19;4878204;28;20210;-80
2022/09/26 09:02:31;;;;;;;5.70;3.55;;;;;;;15.46;64.27;96374.75;4890306;28;20222;-80
2022/09/26 09:05:08;;;;;;;8.13;4.55;;;;;;;15.34;62.95;96372.63;4859663;28;20308;-80
2022/09/26 09:07:33;;;;;;;5.88;4.65;;;;;;;15.29;64.21;96371.97;4891587;28;20199;-80
2022/09/26 09:10:02;;;;;;;6.88;4.60;;;;;;;15.19;64.44;96364.31;4890498;28;20285;-79
2022/09/26 09:13:12;;;;;;;7.50;4.40;;;;;;;14.98;64.63;96370.72;4876070;28;20246;-80
2022/09/26 09:16:34;;;;;;;6.05;4.55;;;;;;;14.71;65.44;96360.25;4869812;29;20299;-80
2022/09/26 09:19:12;;;;;;;5.43;4.15;;;;;;;15.05;64.54;96362.47;4829721;29;20690;-80
2022/09/26 09:21:52;;;;;;;4.78;3.97;;;;;;;15.31;65.30;96354.09;4782726;29;20440;-80
2022/09/26 09:24:38;;;;;;;6.00;4.40;;;;;;;15.31;64.59;96354.09;4827788;28;20383;-80
2022/09/26 09:27:15;;;;;;;7.18;4.72;;;;;;;15.23;65.57;96347.69;4881315;28;20246;-80
2022/09/26 09:29:59;;;;;;;5.50;3.83;;;;;;;15.27;64.38;96350.53;4885021;28;20288;-80
2022/09/26 09:32:29;;;;;;;4.95;4.30;;;;;;;15.38;63.50;96349.22;4852913;28;20245;-79
2022/09/26 09:34:54;;;;;;;4.97;3.90;;;;;;;15.67;63.75;96342.81;4873705;28;20323;-79
2022/09/26 09:37:23;;;;;;;6.45;4.45;;;;;;;15.80;63.59;96336.78;4889491;28;20364;-79
2022/09/26 09:39:49;;;;;;;4.70;3.97;;;;;;;16.13;63.66;96327.88;4889565;28;20287;-80
2022/09/26 09:42:18;;;;;;;7.20;3.67;;;;;;;16.22;61.84;96336.56;4888553;28;20203;-79
2022/09/26 09:44:51;;;;;;;3.47;3.13;;;;;;;16.06;61.43;96331.69;4873144;28;20717;-79
2022/09/26 09:47:17;;;;;;;4.38;2.78;;;;;;;16.31;62.88;96321.59;4874627;28;20145;-79
2022/09/26 09:49:46;;;;;;;3.38;2.83;;;;;;;16.62;60.24;96323.44;4889239;28;20293;-80
2022/09/26 09:52:27;;;;;;;3.42;2.97;;;;;;;16.45;60.88;96318.88;4889819;28;20202;-79
2022/09/26 09:54:55;;;;;;;4.70;2.60;;;;;;;16.47;60.83;96301.75;4874237;28;20175;-80
2022/09/26 09:57:42;;;;;;;4.90;2.80;;;;;;;16.39;59.93;96312.22;4890832;28;20269;-80
2022/09/26 10:00:21;;;;;;;2.67;2.38;;;;;;;16.72;60.99;96306.63;4875312;28;20640;-79
2022/09/26 10:03:01;;;;;;;3.30;2.47;;;;;;;16.84;59.13;96304.22;4873207;28;20272;-79
2022/09/26 10:05:46;;;;;;;3.75;2.58;;;;;;;16.96;59.91;96298.34;4874186;28;20243;-79
2022/09/26 10:08:15;;;;;;;5.47;2.63;;;;;;;16.94;58.68;96290.00;4888869;28;20194;-79
2022/09/26 10:11:10;;;;;;;4.47;2.38;;;;;;;16.38;59.21;96284.41;4888762;28;20516;-79
2022/09/26 10:13:41;;;;;;;4.28;2.38;;;;;;;16.34;60.68;96286.09;4891782;28;20203;-79
2022/09/26 10:16:08;;;;;;;3.83;2.60;;;;;;;16.31;60.48;96281.44;4872949;28;20704;-80
2022/09/26 10:18:55;;;;;;;4.03;2.50;;;;;;;16.35;60.07;96290.25;4865183;28;20247;-79
2022/09/26 10:21:31;;;;;;;3.72;2.10;;;;;;;16.45;61.49;96276.84;4887520;28;20164;-79
2022/09/26 10:23:57;;;;;;;6.70;2.55;;;;;;;16.59;60.75;96284.66;4889950;28;20194;-80
2022/09/26 10:26:25;;;;;;;5.80;2.00;;;;;;;16.63;60.05;96280.31;4876711;28;20258;-80
2022/09/26 10:28:56;;;;;;;3.60;1.92;;;;;;;16.72;59.24;96282.97;4872797;28;20633;-79
2022/09/26 10:31:29;;;;;;;4.40;2.28;;;;;;;16.44;60.45;96276.09;4888902;28;20281;-80
2022/09/26 10:34:01;;;;;;;5.30;2.10;;;;;;;16.44;58.58;96270.06;4888804;28;20273;-79
2022/09/26 10:36:35;;;;;;;2.25;2.05;;;;;;;16.45;59.44;96263.72;4887963;28;20554;-80
2022/09/26 10:41:48;;;;;;;2.88;1.67;;;;;;;16.50;62.00;96265.44;4891697;28;20179;-81
2022/09/26 10:44:24;;;;;;;2.00;1.67;;;;;;;16.02;59.91;96264.31;4889949;28;20283;-79
2022/09/26 10:46:51;;;;;;;2.42;2.00;;;;;;;16.41;61.91;96263.53;4872700;28;20247;-80
2022/09/26 10:49:20;;;;;;;2.95;2.05;;;;;;;16.23;61.53;96264.59;4873700;28;20211;-80
2022/09/26 10:52:07;;;;;;;3.33;2.40;;;;;;;16.23;61.76;96260.09;4888214;28;20494;-80
2022/09/26 10:54:40;;;;;;;2.80;1.92;;;;;;;16.40;59.72;96253.34;4889017;28;20453;-80
2022/09/26 10:57:08;;;;;;;3.95;2.22;;;;;;;16.58;60.81;96252.31;4889757;28;20246;-79
2022/09/26 10:59:38;;;;;;;2.97;1.90;;;;;;;16.32;60.96;96254.09;4872369;28;20210;-79
2022/09/26 11:02:04;;;;;;;3.40;1.70;;;;;;;16.52;59.21;96250.94;4872103;28;20282;-80
2022/09/26 11:07:26;;;;;;;2.60;2.00;;;;;;;16.67;58.03;96244.44;4869880;28;20277;-79
2022/09/26 11:09:51;;;;;;;;;;;;;;;16.15;60.92;96239.81;4859113;28;20193;-80
2022/09/26 11:12:26;;;;;;;2.50;1.77;;;;;;;16.47;59.14;96237.94;4889308;28;20535;-80
2022/09/26 11:14:57;;;;;;;4.43;2.20;;;;;;;16.57;59.34;96242.09;4888196;28;20214;-79
2022/09/26 11:17:48;;;;;;;3.85;2.22;;;;;;;16.45;59.11;96238.22;4888912;28;20474;-80
2022/09/26 11:20:19;;;;;;;3.97;1.90;;;;;;;16.75;59.95;96230.56;4870295;28;20085;-80
2022/09/26 11:23:11;;;;;;;3.25;1.80;;;;;;;16.66;60.01;96230.53;4854594;28;20203;-80
2022/09/26 11:25:46;;;;;;;3.47;2.05;;;;;;;16.79;58.04;96228.88;4870595;28;20173;-80
2022/09/26 11:28:16;;;;;;;1.95;1.75;;;;;;;16.63;59.41;96228.53;4868161;28;20269;-80
2022/09/26 11:31:15;;;;;;;3.15;2.58;;;;;;;16.58;59.91;96218.16;4888200;28;20419;-80
2022/09/26 11:34:02;;;;;;;4.25;2.40;;;;;;;16.49;61.15;96214.75;4882309;28;20246;-80
2022/09/26 11:36:46;;;;;;;2.53;1.95;;;;;;;16.51;59.59;96207.31;4874820;28;20245;-79
2022/09/26 11:39:32;;;;;;;3.85;2.00;;;;;;;16.16;60.04;96201.97;4889382;28;20587;-79
2022/09/26 11:42:02;;;;;;;2.38;1.60;;;;;;;16.19;59.68;96196.09;4881067;28;20246;-80
2022/09/26 11:44:54;;;;;;;2.55;1.65;;;;;;;16.01;60.32;96195.28;4879032;28;20521;-80
2022/09/26 11:47:30;;;;;;;1.50;1.30;;;;;;;16.22;61.04;96178.97;4881115;28;20243;-79
2022/09/26 11:50:19;;;;;;;2.88;1.50;;;;;;;16.38;60.61;96187.19;4880991;28;20206;-80
2022/09/26 11:53:06;;;;;;;3.13;1.20;;;;;;;16.36;59.79;96186.72;4879248;28;20290;-79
2022/09/26 11:55:49;;;;;;;3.03;1.40;;;;;;;16.39;59.81;96184.25;4879110;28;20277;-80
2022/09/26 11:58:20;;;;;;;2.25;1.70;;;;;;;16.45;58.95;96179.63;4886350;28;20218;-80
2022/09/26 12:01:11;;;;;;;1.52;0.93;;;;;;;16.19;58.79;96172.47;4872614;28;20104;-80
2022/09/26 12:04:06;;;;;;;2.65;1.00;;;;;;;15.97;60.14;96170.72;4872643;28;20196;-80
2022/09/26 12:07:06;;;;;;;3.17;1.25;;;;;;;16.07;61.91;96159.94;4873180;28;20281;-79
2022/09/26 12:10:13;;;;;;;1.73;1.30;;;;;;;15.77;62.03;96158.91;4889195;28;20695;-80
2022/09/26 12:13:06;;;;;;;3.22;2.03;;;;;;;15.67;63.13;96146.78;4889222;28;20179;-80